Huvudsida
METAR-TAF:

METAR-TAF

Flygplatser :

Šiauliai internationella flygplats

Šiauliai, Litauen

latitud: 55-53-38N, longitud: 023-23-42E, höjd: 135 m

Aktuellt väderrapport

Denna rapport gjordes för 16 minuter sedan, klockan 18:20 UTC
Vind 9 kt från nord/nordost
Temperatur -1°C
Fuktighet 93%
Tryck 1026 hPa
Sikt 10 km eller mer
Brutna moln på en höjd av 1200 ft
Mulet på en höjd av 1500 ft

METAR: EYSA 131820Z 03009KT 9999 BKN012 OVC015 M01/M02 Q1026 R32R/29//95 GRN NOSIG

Tid: 20:36 (18:36 UTC)

Väderprognos

Denna rapport gjordes för 1 timme och 31 minuter sedan, klockan 17:05 UTC
Prognos gäller från 13 kl. 18 UTC till 14 kl. 03 UTC
Vind 10 kt från nord/nordost
Sikt: 6000 m
Spridda moln på en höjd av 1000 ft
Brutna moln på en höjd av 1500 ft
Temporärt
från 13 kl. 18 UTC till 13 kl. 21 UTC
Brutna moln på en höjd av 500 ft
Mulet på en höjd av 1000 ft

TAF: EYSA 131705Z 1318/1403 03010KT 6000 SCT010 BKN015 TEMPO 1318/1321 BKN005 OVC010

Aktuella väderrapporter och prognoser från 4000 flygplatser (METAR- och TAF-rapporter).

De tillgängliga stationerna syns som gula och röda prickar på kartan.

För musen över prickarna för att se namnen på stationerna.

Klicka sedan för att få väderrapporter och prognoser.

För att ändra kartan: Klicka på de gröna knapparna med ett svart kors på för att zooma in; den gröna knappen med ett streck på för att zooma ut; eller på de gröna pilarna för angränsande kartor.


METAR-TAF: